Time;durP1;ratioP1;P1;durP2;ratioP2;P2;SDS_P1;SDS_P2;PMS_P1;PMS_P2;Temp;Humidity;BMP_temperature;BMP_pressure;BME280_temperature;BME280_humidity;BME280_pressure;Samples;Min_cycle;Max_cycle;Signal;HPM_P1;HPM_P2
2022/07/28 00:02:24;;;;;;;3.28;2.50;;;;;;;;;;5099597;27;24523;-46
2022/07/28 00:04:49;;;;;;;3.50;2.70;;;;;;;;;;5090020;28;24414;-46
2022/07/28 00:07:14;;;;;;;2.95;2.40;;;;;;;;;;5093761;28;25207;-46
2022/07/28 00:09:39;;;;;;;2.70;2.50;;;;;;;;;;5095017;28;24491;-46
2022/07/28 00:12:05;;;;;;;4.10;2.60;;;;;;;;;;5090220;28;24500;-45
2022/07/28 00:14:30;;;;;;;3.10;2.60;;;;;;;;;;5088057;28;24430;-45
2022/07/28 00:16:55;;;;;;;3.67;2.80;;;;;;;;;;5093149;28;24421;-46
2022/07/28 00:19:21;;;;;;;2.93;2.50;;;;;;;;;;5095059;28;25053;-46
2022/07/28 00:21:46;;;;;;;2.80;2.60;;;;;;;;;;5094037;28;24552;-46
2022/07/28 00:24:11;;;;;;;4.10;2.70;;;;;;;;;;5085721;28;25639;-45
2022/07/28 00:26:36;;;;;;;3.80;2.60;;;;;;;;;;5099343;28;24981;-45
2022/07/28 00:29:02;;;;;;;2.60;2.40;;;;;;;;;;5087588;28;24465;-46
2022/07/28 00:31:27;;;;;;;4.70;2.90;;;;;;;;;;5097617;28;24509;-46
2022/07/28 00:33:52;;;;;;;2.83;2.50;;;;;;;;;;5089764;28;24459;-46
2022/07/28 00:36:17;;;;;;;3.13;2.83;;;;;;;;;;5090617;28;24970;-45
2022/07/28 00:38:42;;;;;;;2.60;2.40;;;;;;;;;;5092614;28;24445;-44
2022/07/28 00:41:10;;;;;;;4.07;2.50;;;;;;;;;;5093498;28;24955;-45
2022/07/28 00:43:36;;;;;;;3.00;2.80;;;;;;;;;;5115167;27;24471;-45
2022/07/28 00:46:01;;;;;;;3.30;2.90;;;;;;;;;;5098932;28;24819;-46
2022/07/28 00:48:27;;;;;;;2.93;2.57;;;;;;;;;;5087526;28;24433;-45
2022/07/28 00:50:52;;;;;;;2.90;2.70;;;;;;;;;;5090744;28;24438;-46
2022/07/28 00:53:17;;;;;;;4.03;2.80;;;;;;;;;;5091359;28;24440;-44
2022/07/28 00:55:44;;;;;;;3.30;3.00;;;;;;;;;;5088885;28;22399;-45
2022/07/28 00:58:09;;;;;;;3.60;2.70;;;;;;;;;;5093227;28;24426;-45
2022/07/28 01:00:34;;;;;;;4.18;3.03;;;;;;;;;;5095662;28;24450;-46
2022/07/28 01:03:00;;;;;;;4.47;2.77;;;;;;;;;;5087606;28;24425;-45
2022/07/28 01:05:29;;;;;;;4.07;3.10;;;;;;;;;;5090053;28;24436;-45
2022/07/28 01:08:02;;;;;;;2.90;2.70;;;;;;;;;;5095549;28;24433;-46
2022/07/28 01:10:45;;;;;;;3.08;2.78;;;;;;;;;;5098939;28;24992;-46
2022/07/28 01:13:29;;;;;;;3.70;2.67;;;;;;;;;;5086189;28;25115;-45
2022/07/28 01:15:57;;;;;;;3.30;2.80;;;;;;;;;;5097999;28;24426;-45
2022/07/28 01:18:29;;;;;;;2.92;2.63;;;;;;;;;;5101399;28;24893;-45
2022/07/28 01:21:09;;;;;;;2.70;2.50;;;;;;;;;;5087847;28;24487;-46
2022/07/28 01:23:40;;;;;;;3.63;2.97;;;;;;;;;;5094599;28;24463;-46
2022/07/28 01:26:08;;;;;;;3.53;2.40;;;;;;;;;;5098721;28;24560;-46
2022/07/28 01:28:45;;;;;;;3.53;2.95;;;;;;;;;;5097349;28;24987;-45
2022/07/28 01:31:13;;;;;;;3.40;2.70;;;;;;;;;;5099742;28;24445;-45
2022/07/28 01:33:43;;;;;;;4.85;2.80;;;;;;;;;;5092886;28;24418;-45
2022/07/28 01:36:09;;;;;;;3.22;2.50;;;;;;;;;;5102064;28;25153;-45
2022/07/28 01:38:35;;;;;;;3.08;2.70;;;;;;;;;;5096490;28;24486;-45
2022/07/28 01:41:02;;;;;;;2.80;2.60;;;;;;;;;;5104189;28;24444;-46
2022/07/28 01:43:28;;;;;;;4.68;2.60;;;;;;;;;;5094314;28;24439;-46
2022/07/28 01:45:54;;;;;;;3.10;2.80;;;;;;;;;;5103352;28;24426;-46
2022/07/28 01:48:19;;;;;;;3.10;2.80;;;;;;;;;;5105930;28;24432;-45
2022/07/28 01:50:46;;;;;;;3.67;3.03;;;;;;;;;;5094712;28;25058;-46
2022/07/28 01:53:12;;;;;;;3.55;3.03;;;;;;;;;;5094267;28;24480;-44
2022/07/28 01:55:38;;;;;;;4.60;2.90;;;;;;;;;;5102994;28;24422;-44
2022/07/28 01:58:03;;;;;;;3.53;3.15;;;;;;;;;;5106574;28;24417;-45
2022/07/28 02:00:29;;;;;;;3.40;3.10;;;;;;;;;;5093522;28;25104;-46
2022/07/28 02:02:55;;;;;;;3.13;2.83;;;;;;;;;;5094109;27;24426;-46
2022/07/28 02:05:22;;;;;;;3.60;3.30;;;;;;;;;;5098679;28;24489;-46
2022/07/28 02:07:48;;;;;;;3.10;2.80;;;;;;;;;;5099728;27;24521;-46
2022/07/28 02:10:14;;;;;;;3.65;3.35;;;;;;;;;;5094323;28;24533;-45
2022/07/28 02:12:40;;;;;;;4.25;3.08;;;;;;;;;;5101664;28;25079;-45
2022/07/28 02:15:07;;;;;;;3.50;3.20;;;;;;;;;;5104723;28;24983;-46
2022/07/28 02:17:33;;;;;;;3.30;3.00;;;;;;;;;;5094747;27;25149;-45
2022/07/28 02:19:59;;;;;;;3.58;3.20;;;;;;;;;;5106892;28;24469;-45
2022/07/28 02:22:25;;;;;;;3.35;3.05;;;;;;;;;;5098631;28;24528;-44
2022/07/28 02:24:52;;;;;;;3.45;3.10;;;;;;;;;;5099621;28;24750;-45
2022/07/28 02:27:22;;;;;;;3.50;3.20;;;;;;;;;;5103621;28;25024;-45
2022/07/28 02:29:49;;;;;;;4.05;3.40;;;;;;;;;;5094434;28;24437;-45
2022/07/28 02:32:19;;;;;;;4.18;3.22;;;;;;;;;;5094209;28;24429;-45
2022/07/28 02:34:46;;;;;;;3.23;2.93;;;;;;;;;;5096416;27;25136;-45
2022/07/28 02:37:14;;;;;;;3.20;2.92;;;;;;;;;;5099486;28;24501;-45
2022/07/28 02:39:42;;;;;;;3.78;3.10;;;;;;;;;;5098105;27;25044;-45
2022/07/28 02:42:09;;;;;;;3.38;3.08;;;;;;;;;;5092804;28;24432;-45
2022/07/28 02:44:38;;;;;;;3.65;3.30;;;;;;;;;;5105344;28;24472;-45
2022/07/28 02:47:05;;;;;;;3.50;2.80;;;;;;;;;;5099026;28;24788;-46
2022/07/28 02:49:32;;;;;;;3.72;3.30;;;;;;;;;;5091926;27;24445;-46
2022/07/28 02:51:58;;;;;;;4.00;3.60;;;;;;;;;;5096738;28;24407;-46
2022/07/28 02:54:24;;;;;;;4.23;3.10;;;;;;;;;;5093454;28;25032;-46
2022/07/28 02:56:50;;;;;;;4.00;3.30;;;;;;;;;;5097305;28;24424;-46
2022/07/28 02:59:16;;;;;;;3.67;3.38;;;;;;;;;;5105801;28;24509;-46
2022/07/28 03:01:42;;;;;;;3.30;3.00;;;;;;;;;;5088639;28;24538;-46
2022/07/28 03:04:08;;;;;;;3.53;3.00;;;;;;;;;;5097660;28;24437;-46
2022/07/28 03:06:33;;;;;;;3.30;3.10;;;;;;;;;;5090728;28;24432;-46
2022/07/28 03:08:58;;;;;;;4.80;3.20;;;;;;;;;;5098119;27;24506;-45
2022/07/28 03:11:24;;;;;;;3.83;3.53;;;;;;;;;;5095444;28;24479;-45
2022/07/28 03:13:49;;;;;;;3.80;3.03;;;;;;;;;;5089917;28;24963;-46
2022/07/28 03:16:14;;;;;;;3.40;3.10;;;;;;;;;;5088043;28;24787;-46
2022/07/28 03:18:39;;;;;;;3.67;3.37;;;;;;;;;;5088536;28;24394;-46
2022/07/28 03:21:04;;;;;;;3.87;3.47;;;;;;;;;;5099804;27;24978;-45
2022/07/28 03:23:39;;;;;;;3.80;3.50;;;;;;;;;;5092254;28;24529;-45
2022/07/28 03:26:05;;;;;;;3.50;3.20;;;;;;;;;;5097754;28;24517;-46
2022/07/28 03:28:32;;;;;;;3.10;2.80;;;;;;;;;;5086364;28;24445;-46
2022/07/28 03:30:59;;;;;;;3.77;3.40;;;;;;;;;;5095699;28;25436;-45
2022/07/28 03:33:24;;;;;;;3.78;3.47;;;;;;;;;;5090909;28;24818;-46
2022/07/28 03:35:50;;;;;;;3.37;2.80;;;;;;;;;;5098772;28;25032;-46
2022/07/28 03:38:23;;;;;;;4.00;3.60;;;;;;;;;;5095701;28;24475;-46
2022/07/28 03:40:49;;;;;;;4.20;3.65;;;;;;;;;;5098038;28;24433;-45
2022/07/28 03:43:18;;;;;;;4.07;3.43;;;;;;;;;;5096812;28;24425;-45
2022/07/28 03:45:44;;;;;;;5.90;3.60;;;;;;;;;;5093881;28;24512;-45
2022/07/28 03:48:09;;;;;;;3.90;3.60;;;;;;;;;;5088891;28;24701;-46
2022/07/28 03:50:34;;;;;;;3.60;3.30;;;;;;;;;;5102334;28;24448;-46
2022/07/28 03:53:01;;;;;;;3.70;3.43;;;;;;;;;;5094634;28;24430;-44
2022/07/28 03:55:27;;;;;;;4.05;3.65;;;;;;;;;;5089018;28;24433;-45
2022/07/28 03:57:52;;;;;;;3.60;3.30;;;;;;;;;;5096366;28;24424;-46
2022/07/28 04:00:18;;;;;;;3.90;3.60;;;;;;;;;;5090981;28;24486;-45
2022/07/28 04:02:43;;;;;;;4.03;3.72;;;;;;;;;;5087222;28;24547;-46
2022/07/28 04:05:12;;;;;;;4.13;3.63;;;;;;;;;;5093176;28;24546;-45
2022/07/28 04:07:38;;;;;;;4.60;3.53;;;;;;;;;;5090256;28;24423;-46
2022/07/28 04:10:03;;;;;;;4.00;3.70;;;;;;;;;;5098126;27;24452;-46
2022/07/28 04:12:28;;;;;;;4.97;3.70;;;;;;;;;;5102611;28;24418;-45
2022/07/28 04:14:54;;;;;;;4.05;3.65;;;;;;;;;;5101609;28;24920;-45
2022/07/28 04:17:19;;;;;;;4.03;3.63;;;;;;;;;;5100820;28;24433;-45
2022/07/28 04:19:44;;;;;;;3.95;3.55;;;;;;;;;;5091347;28;24426;-51
2022/07/28 04:22:09;;;;;;;3.63;3.33;;;;;;;;;;5097654;28;24851;-46
2022/07/28 04:24:34;;;;;;;3.70;3.40;;;;;;;;;;5096798;28;24441;-45
2022/07/28 04:26:59;;;;;;;3.40;3.00;;;;;;;;;;5097788;28;24429;-46
2022/07/28 04:29:24;;;;;;;3.57;3.30;;;;;;;;;;5089865;28;25508;-45
2022/07/28 04:31:50;;;;;;;3.47;3.17;;;;;;;;;;5099207;28;24414;-46
2022/07/28 04:34:15;;;;;;;3.85;3.30;;;;;;;;;;5090894;28;24535;-46
2022/07/28 04:36:42;;;;;;;4.10;3.70;;;;;;;;;;5091385;28;24430;-45
2022/07/28 04:39:09;;;;;;;5.10;4.00;;;;;;;;;;5097102;28;24421;-45
2022/07/28 04:41:35;;;;;;;5.20;4.20;;;;;;;;;;5096153;28;24516;-46
2022/07/28 04:44:00;;;;;;;4.90;4.40;;;;;;;;;;5099574;28;24430;-45
2022/07/28 04:46:25;;;;;;;5.03;4.00;;;;;;;;;;5093209;28;24526;-45
2022/07/28 04:48:50;;;;;;;4.67;4.03;;;;;;;;;;5102448;28;24436;-46
2022/07/28 04:51:16;;;;;;;4.57;3.80;;;;;;;;;;5097724;28;24428;-44
2022/07/28 04:53:41;;;;;;;3.97;3.58;;;;;;;;;;5091894;28;24826;-45
2022/07/28 04:56:07;;;;;;;3.70;3.40;;;;;;;;;;5090811;28;24517;-45
2022/07/28 04:58:32;;;;;;;5.60;5.03;;;;;;;;;;5095969;28;24413;-45
2022/07/28 05:00:57;;;;;;;4.20;3.80;;;;;;;;;;5095027;28;24513;-45
2022/07/28 05:03:22;;;;;;;5.60;4.60;;;;;;;;;;5100673;28;24429;-45
2022/07/28 05:05:47;;;;;;;5.22;4.53;;;;;;;;;;5092334;28;25032;-45
2022/07/28 05:08:12;;;;;;;5.68;4.30;;;;;;;;;;5091301;28;24518;-45
2022/07/28 05:10:37;;;;;;;5.43;4.30;;;;;;;;;;5089862;28;24495;-45
2022/07/28 05:13:03;;;;;;;4.70;4.20;;;;;;;;;;5094178;28;24428;-45
2022/07/28 05:15:28;;;;;;;5.83;4.23;;;;;;;;;;5102337;28;24836;-45
2022/07/28 05:17:53;;;;;;;5.60;4.28;;;;;;;;;;5099964;28;24451;-46
2022/07/28 05:20:19;;;;;;;5.18;4.10;;;;;;;;;;5099412;28;24429;-46
2022/07/28 05:22:45;;;;;;;5.00;3.60;;;;;;;;;;5092030;28;24976;-45
2022/07/28 05:25:14;;;;;;;6.55;3.65;;;;;;;;;;5090650;28;25078;-45
2022/07/28 05:27:39;;;;;;;4.57;4.18;;;;;;;;;;5092131;28;24450;-45
2022/07/28 05:30:05;;;;;;;4.97;3.83;;;;;;;;;;5095594;28;24433;-45
2022/07/28 05:32:30;;;;;;;3.70;3.40;;;;;;;;;;5098918;28;24428;-44
2022/07/28 05:34:55;;;;;;;4.60;3.60;;;;;;;;;;5097684;28;24784;-44
2022/07/28 05:37:20;;;;;;;5.53;3.92;;;;;;;;;;5084864;28;24412;-45
2022/07/28 05:39:46;;;;;;;4.07;3.67;;;;;;;;;;5097526;28;24585;-45
2022/07/28 05:42:11;;;;;;;4.28;3.88;;;;;;;;;;5090536;28;24556;-45
2022/07/28 05:44:36;;;;;;;5.72;4.25;;;;;;;;;;5086291;28;24430;-45
2022/07/28 05:47:01;;;;;;;5.75;4.38;;;;;;;;;;5093022;28;24479;-45
2022/07/28 05:49:26;;;;;;;4.38;3.70;;;;;;;;;;5100085;28;24456;-44
2022/07/28 05:51:51;;;;;;;4.20;3.70;;;;;;;;;;5093961;28;24518;-45
2022/07/28 05:54:16;;;;;;;4.70;4.30;;;;;;;;;;5092155;28;24434;-46
2022/07/28 05:56:42;;;;;;;5.20;4.28;;;;;;;;;;5096070;28;25085;-46
2022/07/28 05:59:09;;;;;;;6.45;5.00;;;;;;;;;;5093325;28;24532;-45
2022/07/28 06:01:35;;;;;;;4.63;4.20;;;;;;;;;;5088362;28;24417;-44
2022/07/28 06:04:00;;;;;;;5.30;4.55;;;;;;;;;;5095368;28;24448;-45
2022/07/28 06:06:26;;;;;;;5.80;4.80;;;;;;;;;;5103620;28;24402;-45
2022/07/28 06:08:51;;;;;;;5.45;4.95;;;;;;;;;;5112247;27;24474;-46
2022/07/28 06:11:16;;;;;;;6.40;5.20;;;;;;;;;;5093414;28;24846;-46
2022/07/28 06:13:44;;;;;;;5.00;4.50;;;;;;;;;;5099237;28;24409;-45
2022/07/28 06:16:10;;;;;;;4.43;4.03;;;;;;;;;;5091153;27;24535;-45
2022/07/28 06:18:35;;;;;;;4.90;4.40;;;;;;;;;;5095519;27;25246;-45
2022/07/28 06:21:00;;;;;;;5.20;4.70;;;;;;;;;;5095528;28;24817;-45
2022/07/28 06:23:25;;;;;;;5.07;4.67;;;;;;;;;;5092538;27;24918;-46
2022/07/28 06:25:51;;;;;;;5.70;5.20;;;;;;;;;;5097128;28;24521;-44
2022/07/28 06:28:17;;;;;;;6.00;5.40;;;;;;;;;;5098476;27;24422;-44
2022/07/28 06:30:42;;;;;;;6.40;5.80;;;;;;;;;;5094373;27;24984;-45
2022/07/28 06:33:08;;;;;;;7.28;6.10;;;;;;;;;;5100339;28;24433;-45
2022/07/28 06:35:33;;;;;;;9.70;8.70;;;;;;;;;;5105190;27;24426;-45
2022/07/28 06:37:58;;;;;;;9.57;7.63;;;;;;;;;;5107860;27;24426;-46
2022/07/28 06:40:23;;;;;;;8.03;7.23;;;;;;;;;;5099361;28;24425;-46
2022/07/28 06:42:49;;;;;;;8.70;7.90;;;;;;;;;;5090384;28;24818;-46
2022/07/28 06:45:14;;;;;;;9.07;8.10;;;;;;;;;;5095092;27;24440;-46
2022/07/28 06:47:39;;;;;;;8.90;7.30;;;;;;;;;;5115234;27;25311;-45
2022/07/28 06:50:05;;;;;;;8.83;7.93;;;;;;;;;;5114137;27;25050;-44
2022/07/28 06:52:30;;;;;;;11.40;9.20;;;;;;;;;;5126600;27;24405;-44
2022/07/28 06:54:55;;;;;;;8.70;7.80;;;;;;;;;;5100474;27;24425;-45
2022/07/28 06:57:21;;;;;;;9.35;8.35;;;;;;;;;;5106541;27;24436;-45
2022/07/28 06:59:47;;;;;;;11.27;9.07;;;;;;;;;;5103613;27;24906;-45
2022/07/28 07:02:12;;;;;;;11.60;10.50;;;;;;;;;;5097870;28;24479;-44
2022/07/28 07:04:37;;;;;;;15.13;12.77;;;;;;;;;;5104605;27;24422;-45
2022/07/28 07:07:03;;;;;;;12.50;11.20;;;;;;;;;;5099142;28;24729;-45
2022/07/28 07:09:28;;;;;;;10.82;9.77;;;;;;;;;;5092026;28;24430;-44
2022/07/28 07:11:53;;;;;;;13.43;10.20;;;;;;;;;;5090341;28;24422;-46
2022/07/28 07:14:18;;;;;;;10.80;9.70;;;;;;;;;;5111988;27;24413;-45
2022/07/28 07:16:43;;;;;;;10.35;9.45;;;;;;;;;;5099648;27;24496;-45
2022/07/28 07:19:09;;;;;;;9.70;8.70;;;;;;;;;;5096213;28;24456;-45
2022/07/28 07:21:34;;;;;;;10.02;8.50;;;;;;;;;;5106419;28;24419;-45
2022/07/28 07:23:59;;;;;;;10.40;9.30;;;;;;;;;;5093543;28;24514;-46
2022/07/28 07:26:24;;;;;;;11.07;9.95;;;;;;;;;;5102207;28;24422;-46
2022/07/28 07:28:49;;;;;;;11.00;9.90;;;;;;;;;;5106929;28;24528;-44
2022/07/28 07:31:14;;;;;;;10.27;9.10;;;;;;;;;;5096269;28;25178;-45
2022/07/28 07:33:40;;;;;;;13.60;10.63;;;;;;;;;;5105856;28;24830;-45
2022/07/28 07:36:05;;;;;;;11.70;9.77;;;;;;;;;;5102084;28;24421;-45
2022/07/28 07:38:30;;;;;;;12.00;10.60;;;;;;;;;;5097080;28;24513;-45
2022/07/28 07:40:56;;;;;;;10.60;9.50;;;;;;;;;;5098261;28;24902;-46
2022/07/28 07:43:22;;;;;;;9.60;8.60;;;;;;;;;;5102464;28;24414;-46
2022/07/28 07:45:47;;;;;;;11.30;8.40;;;;;;;;;;5106013;28;24439;-45
2022/07/28 07:48:12;;;;;;;9.67;8.67;;;;;;;;;;5107796;28;24530;-45
2022/07/28 07:50:37;;;;;;;8.73;7.83;;;;;;;;;;5089386;28;24849;-45
2022/07/28 07:53:02;;;;;;;9.10;7.40;;;;;;;;;;5103353;28;24764;-45
2022/07/28 07:55:28;;;;;;;9.83;8.40;;;;;;;;;;5107916;28;24398;-46
2022/07/28 07:57:53;;;;;;;9.88;8.10;;;;;;;;;;5107544;28;24760;-45
2022/07/28 08:00:18;;;;;;;9.27;7.90;;;;;;;;;;5107879;28;24961;-45
2022/07/28 08:02:43;;;;;;;9.50;7.60;;;;;;;;;;5107719;28;24412;-45
2022/07/28 08:05:09;;;;;;;7.80;7.00;;;;;;;;;;5105028;28;24520;-45
2022/07/28 08:07:34;;;;;;;9.02;6.88;;;;;;;;;;5107857;28;24483;-44
2022/07/28 08:10:00;;;;;;;6.30;5.70;;;;;;;;;;5095526;28;24422;-44
2022/07/28 08:12:25;;;;;;;7.03;6.30;;;;;;;;;;5107695;28;24412;-44
2022/07/28 08:14:50;;;;;;;6.97;6.33;;;;;;;;;;5107223;28;24409;-44
2022/07/28 08:17:15;;;;;;;6.40;5.60;;;;;;;;;;5107331;28;24416;-45
2022/07/28 08:19:40;;;;;;;7.63;5.50;;;;;;;;;;5094404;28;24421;-44
2022/07/28 08:22:05;;;;;;;5.45;4.75;;;;;;;;;;5086984;28;24387;-45
2022/07/28 08:24:30;;;;;;;6.90;5.00;;;;;;;;;;5095124;28;24475;-45
2022/07/28 08:26:56;;;;;;;5.60;4.38;;;;;;;;;;5107244;28;24405;-45
2022/07/28 08:29:21;;;;;;;6.05;4.30;;;;;;;;;;5106860;28;24497;-45
2022/07/28 08:31:46;;;;;;;6.03;4.30;;;;;;;;;;5106383;28;24479;-46
2022/07/28 08:34:11;;;;;;;6.20;3.30;;;;;;;;;;5105039;28;24402;-46
2022/07/28 08:36:36;;;;;;;3.35;2.58;;;;;;;;;;5107295;28;24405;-46
2022/07/28 08:39:02;;;;;;;3.50;2.45;;;;;;;;;;5107487;28;24439;-45
2022/07/28 08:41:31;;;;;;;3.65;2.70;;;;;;;;;;5106726;28;24481;-46
2022/07/28 08:43:58;;;;;;;3.17;2.50;;;;;;;;;;5106635;28;24409;-46
2022/07/28 08:46:23;;;;;;;2.20;2.00;;;;;;;;;;5107402;28;25177;-45
2022/07/28 08:48:49;;;;;;;3.08;1.80;;;;;;;;;;5107209;28;24453;-45
2022/07/28 08:51:15;;;;;;;2.90;2.58;;;;;;;;;;5106124;28;24549;-44
2022/07/28 08:53:41;;;;;;;3.80;2.70;;;;;;;;;;5106010;28;24405;-44
2022/07/28 08:56:08;;;;;;;4.60;3.30;;;;;;;;;;5106594;28;24436;-45
2022/07/28 08:58:34;;;;;;;4.47;2.80;;;;;;;;;;5106928;28;24439;-45
2022/07/28 09:00:59;;;;;;;3.17;2.78;;;;;;;;;;5106881;28;24863;-45
2022/07/28 09:03:25;;;;;;;3.40;2.73;;;;;;;;;;5106386;28;24995;-44
2022/07/28 09:05:51;;;;;;;5.10;3.90;;;;;;;;;;5107028;28;24602;-45
2022/07/28 09:08:17;;;;;;;3.50;3.20;;;;;;;;;;5105167;28;24496;-46
2022/07/28 09:10:42;;;;;;;3.88;3.47;;;;;;;;;;5106594;28;24771;-46
2022/07/28 09:13:07;;;;;;;5.28;3.33;;;;;;;;;;5106594;28;24462;-45
2022/07/28 09:15:33;;;;;;;3.25;2.95;;;;;;;;;;5106384;28;24396;-43
2022/07/28 09:17:58;;;;;;;4.13;3.50;;;;;;;;;;5106762;28;24499;-44
2022/07/28 09:20:25;;;;;;;5.50;4.13;;;;;;;;;;5106828;28;24931;-45
2022/07/28 09:22:57;;;;;;;5.75;3.90;;;;;;;;;;5104766;28;24481;-44
2022/07/28 09:25:22;;;;;;;4.10;3.70;;;;;;;;;;5106517;28;24398;-45
2022/07/28 09:27:47;;;;;;;4.63;4.07;;;;;;;;;;5106244;28;24389;-46
2022/07/28 09:30:13;;;;;;;4.30;3.43;;;;;;;;;;5105998;28;24503;-46
2022/07/28 09:32:38;;;;;;;6.50;3.90;;;;;;;;;;5106769;28;24455;-45
2022/07/28 09:35:03;;;;;;;3.87;2.57;;;;;;;;;;5105825;28;24927;-45
2022/07/28 09:37:28;;;;;;;3.60;2.00;;;;;;;;;;5106410;28;24428;-46
2022/07/28 09:39:57;;;;;;;2.70;1.77;;;;;;;;;;5106159;28;24994;-46
2022/07/28 09:42:22;;;;;;;6.40;1.73;;;;;;;;;;5105780;28;24425;-46
2022/07/28 09:45:07;;;;;;;2.43;1.40;;;;;;;;;;5110274;28;24748;-45
2022/07/28 09:47:33;;;;;;;2.10;1.90;;;;;;;;;;5110291;28;24472;-45
2022/07/28 09:49:58;;;;;;;2.40;1.70;;;;;;;;;;5110081;28;24426;-46
2022/07/28 09:52:30;;;;;;;1.90;1.48;;;;;;;;;;5110868;28;24389;-45
2022/07/28 09:55:03;;;;;;;2.17;1.45;;;;;;;;;;5109709;28;24760;-46
2022/07/28 09:57:28;;;;;;;2.10;1.10;;;;;;;;;;5110634;28;24385;-46
2022/07/28 09:59:54;;;;;;;2.83;1.40;;;;;;;;;;5108214;28;24431;-45
2022/07/28 10:02:26;;;;;;;3.77;1.80;;;;;;;;;;5110606;28;24496;-44
2022/07/28 10:04:52;;;;;;;3.80;1.90;;;;;;;;;;5109961;28;24423;-45
2022/07/28 10:07:17;;;;;;;2.90;1.60;;;;;;;;;;5109635;28;24536;-46
2022/07/28 10:09:43;;;;;;;2.93;1.90;;;;;;;;;;5109955;28;24508;-45
2022/07/28 10:12:15;;;;;;;2.33;1.20;;;;;;;;;;5110447;28;24736;-46
2022/07/28 10:14:41;;;;;;;1.48;1.30;;;;;;;;;;5109657;28;24385;-46
2022/07/28 10:17:06;;;;;;;2.07;1.50;;;;;;;;;;5108234;28;24828;-46
2022/07/28 10:19:31;;;;;;;1.63;1.20;;;;;;;;;;5110045;28;24413;-46
2022/07/28 10:21:57;;;;;;;1.50;1.20;;;;;;;;;;5104846;28;25011;-46
2022/07/28 10:24:23;;;;;;;2.63;1.20;;;;;;;;;;5109650;28;24553;-46
2022/07/28 10:26:49;;;;;;;2.35;1.20;;;;;;;;;;5109489;28;24398;-46
2022/07/28 10:29:15;;;;;;;1.60;1.38;;;;;;;;;;5109044;28;24399;-46
2022/07/28 10:31:47;;;;;;;1.70;1.20;;;;;;;;;;5109697;28;24755;-46
2022/07/28 10:34:31;;;;;;;1.85;1.30;;;;;;;;;;5107809;28;24412;-44
2022/07/28 10:36:58;;;;;;;1.83;1.30;;;;;;;;;;5109200;28;24481;-45
2022/07/28 10:39:26;;;;;;;1.75;1.10;;;;;;;;;;5109701;28;24424;-46
2022/07/28 10:41:52;;;;;;;2.17;1.58;;;;;;;;;;5109559;28;24390;-45
2022/07/28 10:44:18;;;;;;;3.63;1.50;;;;;;;;;;5109090;28;24749;-45
2022/07/28 10:46:43;;;;;;;2.10;1.40;;;;;;;;;;5109156;28;24501;-45
2022/07/28 10:49:10;;;;;;;1.40;1.30;;;;;;;;;;5088470;28;24429;-44
2022/07/28 10:51:36;;;;;;;1.50;1.30;;;;;;;;;;5101267;28;24474;-45
2022/07/28 10:54:01;;;;;;;1.52;1.38;;;;;;;;;;5108267;28;24402;-45
2022/07/28 10:56:33;;;;;;;1.70;1.30;;;;;;;;;;5109231;28;24393;-45
2022/07/28 10:59:02;;;;;;;2.33;1.58;;;;;;;;;;5108915;28;24732;-44
2022/07/28 11:01:35;;;;;;;3.30;1.30;;;;;;;;;;5107186;28;24413;-45
2022/07/28 11:04:00;;;;;;;5.90;1.40;;;;;;;;;;5108380;28;24389;-45
2022/07/28 11:06:33;;;;;;;1.50;1.40;;;;;;;;;;5108826;28;24398;-45
2022/07/28 11:09:16;;;;;;;2.25;1.40;;;;;;;;;;5107435;28;24470;-46
2022/07/28 11:11:45;;;;;;;1.60;1.50;;;;;;;;;;5108449;28;24697;-44
2022/07/28 11:14:32;;;;;;;3.00;1.48;;;;;;;;;;5108195;28;24527;-44
2022/07/28 11:17:04;;;;;;;2.17;1.70;;;;;;;;;;5108888;28;24465;-45
2022/07/28 11:19:44;;;;;;;1.40;1.30;;;;;;;;;;5108562;28;24396;-45
2022/07/28 11:22:20;;;;;;;1.83;1.40;;;;;;;;;;5108401;28;24476;-45
2022/07/28 11:25:05;;;;;;;2.00;1.60;;;;;;;;;;5108399;28;24439;-45
2022/07/28 11:27:39;;;;;;;1.95;1.40;;;;;;;;;;5093694;28;24422;-46
2022/07/28 11:30:26;;;;;;;2.40;1.38;;;;;;;;;;5108071;28;24421;-46
2022/07/28 11:32:54;;;;;;;2.70;1.40;;;;;;;;;;5097577;28;24956;-45
2022/07/28 11:35:29;;;;;;;2.08;1.60;;;;;;;;;;5108339;28;24401;-45
2022/07/28 11:38:01;;;;;;;1.60;1.50;;;;;;;;;;5108128;28;24845;-45
2022/07/28 11:40:39;;;;;;;2.80;1.60;;;;;;;;;;5108517;28;24523;-46
2022/07/28 11:43:19;;;;;;;2.88;1.80;;;;;;;;;;5089237;28;25069;-45
2022/07/28 11:45:45;;;;;;;3.05;1.83;;;;;;;;;;5087857;28;24409;-46
2022/07/28 11:48:14;;;;;;;2.95;1.50;;;;;;;;;;5087997;28;25024;-46
2022/07/28 11:51:02;;;;;;;2.00;1.52;;;;;;;;;;5087383;28;24437;-46
2022/07/28 11:53:33;;;;;;;3.42;1.52;;;;;;;;;;5087540;28;24475;-45
2022/07/28 11:56:00;;;;;;;2.13;1.70;;;;;;;;;;5087583;28;24924;-44
2022/07/28 11:58:25;;;;;;;2.40;1.55;;;;;;;;;;5105168;28;25024;-44
2022/07/28 12:01:04;;;;;;;2.40;1.67;;;;;;;;;;5108162;28;24417;-45
2022/07/28 12:03:33;;;;;;;1.60;1.30;;;;;;;;;;5107909;28;24393;-45
2022/07/28 12:05:58;;;;;;;2.35;1.52;;;;;;;;;;5107324;28;24396;-43
2022/07/28 12:08:23;;;;;;;4.87;1.70;;;;;;;;;;5107936;28;24515;-45
2022/07/28 12:10:48;;;;;;;2.75;1.58;;;;;;;;;;5107795;28;24429;-45
2022/07/28 12:13:13;;;;;;;1.83;1.30;;;;;;;;;;5107538;28;24516;-44
2022/07/28 12:15:38;;;;;;;3.03;1.60;;;;;;;;;;5106211;28;24402;-45
2022/07/28 12:18:04;;;;;;;3.13;1.80;;;;;;;;;;5107763;28;24434;-45
2022/07/28 12:20:30;;;;;;;1.77;1.43;;;;;;;;;;5107398;28;24776;-46
2022/07/28 12:23:06;;;;;;;2.70;1.60;;;;;;;;;;5107301;28;25038;-46
2022/07/28 12:25:41;;;;;;;1.70;1.60;;;;;;;;;;5107373;28;24550;-45
2022/07/28 12:28:15;;;;;;;1.60;1.40;;;;;;;;;;5107486;28;24413;-45
2022/07/28 12:30:40;;;;;;;1.70;1.40;;;;;;;;;;5107760;28;24514;-46
2022/07/28 12:33:16;;;;;;;2.17;1.57;;;;;;;;;;5087001;28;24836;-45
2022/07/28 12:35:41;;;;;;;1.65;1.55;;;;;;;;;;5107130;28;24389;-45
2022/07/28 12:38:06;;;;;;;2.43;1.60;;;;;;;;;;5107455;28;24413;-46
2022/07/28 12:40:32;;;;;;;3.33;1.70;;;;;;;;;;5107195;28;24427;-45
2022/07/28 12:42:57;;;;;;;2.33;1.50;;;;;;;;;;5107301;28;24439;-45
2022/07/28 12:45:22;;;;;;;1.53;1.43;;;;;;;;;;5106868;28;24932;-47
2022/07/28 12:47:47;;;;;;;2.40;1.60;;;;;;;;;;5107167;28;24416;-45
2022/07/28 12:50:17;;;;;;;1.63;1.50;;;;;;;;;;5104959;28;24445;-45
2022/07/28 12:52:44;;;;;;;2.03;1.40;;;;;;;;;;5107150;28;24462;-46
2022/07/28 12:55:20;;;;;;;2.20;1.50;;;;;;;;;;5106572;28;24393;-46
2022/07/28 12:57:46;;;;;;;3.20;1.60;;;;;;;;;;5092103;28;24501;-44
2022/07/28 13:00:11;;;;;;;2.10;1.70;;;;;;;;;;5086240;28;24811;-45
2022/07/28 13:02:37;;;;;;;2.57;1.60;;;;;;;;;;5086561;28;24394;-45
2022/07/28 13:05:02;;;;;;;2.00;1.40;;;;;;;;;;5086202;28;24424;-44
2022/07/28 13:07:29;;;;;;;2.88;1.42;;;;;;;;;;5086920;28;24819;-45
2022/07/28 13:10:02;;;;;;;1.97;1.70;;;;;;;;;;5086385;28;24503;-45
2022/07/28 13:12:29;;;;;;;2.00;1.33;;;;;;;;;;5099947;28;24406;-45
2022/07/28 13:14:55;;;;;;;1.90;1.70;;;;;;;;;;5106647;28;24386;-45
2022/07/28 13:17:21;;;;;;;3.50;1.65;;;;;;;;;;5109709;28;24392;-45
2022/07/28 13:19:47;;;;;;;2.05;1.60;;;;;;;;;;5113615;28;24497;-45
2022/07/28 13:22:23;;;;;;;2.00;1.80;;;;;;;;;;5113416;28;24477;-45
2022/07/28 13:24:48;;;;;;;2.40;1.40;;;;;;;;;;5111800;28;24445;-44
2022/07/28 13:27:14;;;;;;;1.70;1.60;;;;;;;;;;5113137;28;24523;-44
2022/07/28 13:29:39;;;;;;;2.10;1.60;;;;;;;;;;5113762;28;24474;-44
2022/07/28 13:32:04;;;;;;;3.25;1.70;;;;;;;;;;5113353;28;24420;-44
2022/07/28 13:34:29;;;;;;;1.60;1.50;;;;;;;;;;5113825;28;24461;-44
2022/07/28 13:36:55;;;;;;;3.33;1.70;;;;;;;;;;5113315;28;24382;-45
2022/07/28 13:39:21;;;;;;;2.50;2.30;;;;;;;;;;5113389;27;24873;-45
2022/07/28 13:41:46;;;;;;;2.50;2.00;;;;;;;;;;5111745;28;24456;-45
2022/07/28 13:44:11;;;;;;;2.65;2.20;;;;;;;;;;5113193;28;24515;-45
2022/07/28 13:46:38;;;;;;;2.90;2.40;;;;;;;;;;5113101;28;24744;-46
2022/07/28 13:49:03;;;;;;;2.42;2.10;;;;;;;;;;5113133;28;24437;-46
2022/07/28 13:51:28;;;;;;;2.50;2.30;;;;;;;;;;5113504;28;24436;-45
2022/07/28 13:53:53;;;;;;;2.47;2.28;;;;;;;;;;5112954;28;24489;-45
2022/07/28 13:56:18;;;;;;;3.17;2.50;;;;;;;;;;5111345;28;24413;-45
2022/07/28 13:58:44;;;;;;;3.83;2.20;;;;;;;;;;5111446;28;24405;-45
2022/07/28 14:01:09;;;;;;;2.53;2.10;;;;;;;;;;5113116;28;24465;-46
2022/07/28 14:03:34;;;;;;;3.07;2.20;;;;;;;;;;5112998;28;24416;-46
2022/07/28 14:05:59;;;;;;;2.70;2.43;;;;;;;;;;5112871;28;24534;-45
2022/07/28 14:08:24;;;;;;;3.72;2.00;;;;;;;;;;5113548;28;24389;-45
2022/07/28 14:10:51;;;;;;;2.20;2.00;;;;;;;;;;5112734;28;24474;-44
2022/07/28 14:13:16;;;;;;;2.80;2.50;;;;;;;;;;5113075;27;24532;-45
2022/07/28 14:15:42;;;;;;;3.88;2.90;;;;;;;;;;5111113;28;24831;-45
2022/07/28 14:18:07;;;;;;;2.83;2.50;;;;;;;;;;5110721;28;24414;-45
2022/07/28 14:20:32;;;;;;;3.30;2.60;;;;;;;;;;5113062;28;24401;-45
2022/07/28 14:22:57;;;;;;;4.63;3.37;;;;;;;;;;5112751;28;24397;-45
2022/07/28 14:25:23;;;;;;;3.50;3.20;;;;;;;;;;5112943;28;24493;-45
2022/07/28 14:27:52;;;;;;;4.25;3.17;;;;;;;;;;5112048;28;24413;-45
2022/07/28 14:30:18;;;;;;;4.07;2.90;;;;;;;;;;5109458;28;25024;-44
2022/07/28 14:32:43;;;;;;;2.67;2.47;;;;;;;;;;5108528;28;24477;-45
2022/07/28 14:35:09;;;;;;;2.55;2.35;;;;;;;;;;5109003;28;24502;-45
2022/07/28 14:37:34;;;;;;;3.00;2.70;;;;;;;;;;5107382;28;24439;-44
2022/07/28 14:39:59;;;;;;;4.20;3.00;;;;;;;;;;5109605;28;24448;-45
2022/07/28 14:42:25;;;;;;;3.30;3.00;;;;;;;;;;5109557;28;24401;-45